sensor_id;sensor_type;location;lat;lon;timestamp;P1;durP1;ratioP1;P2;durP2;ratioP2
58015;SDS011;43809;52.110;20.964;2023-08-07T00:00:26;0.40;;;0.40;;
58015;SDS011;43809;52.110;20.964;2023-08-07T00:02:27;0.35;;;0.30;;
58015;SDS011;43809;52.110;20.964;2023-08-07T00:04:27;0.30;;;0.30;;
58015;SDS011;43809;52.110;20.964;2023-08-07T00:06:29;1.67;;;0.50;;
58015;SDS011;43809;52.110;20.964;2023-08-07T00:08:30;1.00;;;0.35;;
58015;SDS011;43809;52.110;20.964;2023-08-07T00:10:31;0.63;;;0.30;;
58015;SDS011;43809;52.110;20.964;2023-08-07T00:12:32;0.90;;;0.40;;
58015;SDS011;43809;52.110;20.964;2023-08-07T00:14:35;1.08;;;0.30;;
58015;SDS011;43809;52.110;20.964;2023-08-07T00:16:35;0.15;;;0.15;;
58015;SDS011;43809;52.110;20.964;2023-08-07T00:18:36;0.32;;;0.30;;
58015;SDS011;43809;52.110;20.964;2023-08-07T00:20:37;0.73;;;0.30;;
58015;SDS011;43809;52.110;20.964;2023-08-07T00:22:38;0.60;;;0.30;;
58015;SDS011;43809;52.110;20.964;2023-08-07T00:24:38;1.55;;;0.40;;
58015;SDS011;43809;52.110;20.964;2023-08-07T00:29:01;0.73;;;0.45;;
58015;SDS011;43809;52.110;20.964;2023-08-07T00:31:02;0.82;;;0.60;;
58015;SDS011;43809;52.110;20.964;2023-08-07T00:33:03;0.40;;;0.40;;
58015;SDS011;43809;52.110;20.964;2023-08-07T00:37:20;1.08;;;0.60;;
58015;SDS011;43809;52.110;20.964;2023-08-07T00:39:20;0.77;;;0.70;;
58015;SDS011;43809;52.110;20.964;2023-08-07T00:41:21;1.25;;;0.60;;
58015;SDS011;43809;52.110;20.964;2023-08-07T00:43:22;1.45;;;0.60;;
58015;SDS011;43809;52.110;20.964;2023-08-07T00:45:23;0.50;;;0.50;;
58015;SDS011;43809;52.110;20.964;2023-08-07T00:47:24;0.98;;;0.77;;
58015;SDS011;43809;52.110;20.964;2023-08-07T00:49:25;0.68;;;0.60;;
58015;SDS011;43809;52.110;20.964;2023-08-07T00:51:26;1.48;;;0.90;;
58015;SDS011;43809;52.110;20.964;2023-08-07T00:53:27;0.88;;;0.88;;
58015;SDS011;43809;52.110;20.964;2023-08-07T00:55:28;0.85;;;0.80;;
58015;SDS011;43809;52.110;20.964;2023-08-07T00:57:31;0.80;;;0.80;;
58015;SDS011;43809;52.110;20.964;2023-08-07T00:59:31;0.70;;;0.70;;
58015;SDS011;43809;52.110;20.964;2023-08-07T01:01:42;1.20;;;0.80;;
58015;SDS011;43809;52.110;20.964;2023-08-07T01:03:43;1.25;;;0.80;;
58015;SDS011;43809;52.110;20.964;2023-08-07T01:05:43;1.50;;;0.82;;
58015;SDS011;43809;52.110;20.964;2023-08-07T01:07:46;1.75;;;0.70;;
58015;SDS011;43809;52.110;20.964;2023-08-07T01:09:47;1.58;;;0.68;;
58015;SDS011;43809;52.110;20.964;2023-08-07T01:12:00;3.13;;;0.95;;
58015;SDS011;43809;52.110;20.964;2023-08-07T01:16:30;0.88;;;0.88;;
58015;SDS011;43809;52.110;20.964;2023-08-07T01:18:32;1.05;;;0.95;;
58015;SDS011;43809;52.110;20.964;2023-08-07T01:20:36;0.93;;;0.82;;
58015;SDS011;43809;52.110;20.964;2023-08-07T01:22:37;0.63;;;0.63;;
58015;SDS011;43809;52.110;20.964;2023-08-07T01:24:39;1.27;;;1.15;;
58015;SDS011;43809;52.110;20.964;2023-08-07T01:26:42;0.80;;;0.80;;
58015;SDS011;43809;52.110;20.964;2023-08-07T01:28:46;1.95;;;1.02;;
58015;SDS011;43809;52.110;20.964;2023-08-07T01:30:50;1.40;;;0.90;;
58015;SDS011;43809;52.110;20.964;2023-08-07T01:35:11;0.88;;;0.88;;
58015;SDS011;43809;52.110;20.964;2023-08-07T01:37:12;1.80;;;0.93;;
58015;SDS011;43809;52.110;20.964;2023-08-07T01:39:16;1.75;;;1.10;;
58015;SDS011;43809;52.110;20.964;2023-08-07T01:41:18;1.20;;;1.00;;
58015;SDS011;43809;52.110;20.964;2023-08-07T01:43:19;1.77;;;0.90;;
58015;SDS011;43809;52.110;20.964;2023-08-07T01:45:25;1.95;;;1.10;;
58015;SDS011;43809;52.110;20.964;2023-08-07T01:47:27;2.00;;;1.00;;
58015;SDS011;43809;52.110;20.964;2023-08-07T01:49:28;1.80;;;1.23;;
58015;SDS011;43809;52.110;20.964;2023-08-07T01:51:28;1.02;;;0.90;;
58015;SDS011;43809;52.110;20.964;2023-08-07T01:53:29;1.08;;;1.00;;
58015;SDS011;43809;52.110;20.964;2023-08-07T01:55:30;0.90;;;0.90;;
58015;SDS011;43809;52.110;20.964;2023-08-07T01:57:30;1.23;;;1.02;;
58015;SDS011;43809;52.110;20.964;2023-08-07T01:59:31;1.08;;;0.90;;
58015;SDS011;43809;52.110;20.964;2023-08-07T02:01:32;0.93;;;0.82;;
58015;SDS011;43809;52.110;20.964;2023-08-07T02:03:33;0.80;;;0.80;;
58015;SDS011;43809;52.110;20.964;2023-08-07T02:05:34;1.20;;;1.10;;
58015;SDS011;43809;52.110;20.964;2023-08-07T02:07:36;1.45;;;1.08;;
58015;SDS011;43809;52.110;20.964;2023-08-07T02:09:37;1.23;;;1.13;;
58015;SDS011;43809;52.110;20.964;2023-08-07T02:11:44;2.25;;;1.05;;
58015;SDS011;43809;52.110;20.964;2023-08-07T02:13:44;1.60;;;1.20;;
58015;SDS011;43809;52.110;20.964;2023-08-07T02:15:45;1.02;;;1.00;;
58015;SDS011;43809;52.110;20.964;2023-08-07T02:17:46;2.05;;;1.10;;
58015;SDS011;43809;52.110;20.964;2023-08-07T02:19:46;1.52;;;1.42;;
58015;SDS011;43809;52.110;20.964;2023-08-07T02:21:47;1.85;;;1.20;;
58015;SDS011;43809;52.110;20.964;2023-08-07T02:23:48;1.00;;;1.00;;
58015;SDS011;43809;52.110;20.964;2023-08-07T02:25:48;1.88;;;1.20;;
58015;SDS011;43809;52.110;20.964;2023-08-07T02:27:49;3.22;;;1.13;;
58015;SDS011;43809;52.110;20.964;2023-08-07T02:29:50;1.10;;;1.10;;
58015;SDS011;43809;52.110;20.964;2023-08-07T02:31:51;1.88;;;0.80;;
58015;SDS011;43809;52.110;20.964;2023-08-07T02:33:52;1.27;;;1.08;;
58015;SDS011;43809;52.110;20.964;2023-08-07T02:35:52;0.88;;;0.88;;
58015;SDS011;43809;52.110;20.964;2023-08-07T02:37:54;1.27;;;0.85;;
58015;SDS011;43809;52.110;20.964;2023-08-07T02:39:54;1.13;;;1.00;;
58015;SDS011;43809;52.110;20.964;2023-08-07T02:41:55;1.10;;;1.00;;
58015;SDS011;43809;52.110;20.964;2023-08-07T02:43:56;1.45;;;1.00;;
58015;SDS011;43809;52.110;20.964;2023-08-07T02:45:56;2.00;;;1.00;;
58015;SDS011;43809;52.110;20.964;2023-08-07T02:47:57;0.90;;;0.90;;
58015;SDS011;43809;52.110;20.964;2023-08-07T02:49:58;1.08;;;0.90;;
58015;SDS011;43809;52.110;20.964;2023-08-07T02:52:00;0.98;;;0.90;;
58015;SDS011;43809;52.110;20.964;2023-08-07T02:54:11;0.90;;;0.90;;
58015;SDS011;43809;52.110;20.964;2023-08-07T02:56:12;1.08;;;0.98;;
58015;SDS011;43809;52.110;20.964;2023-08-07T02:58:12;1.35;;;0.90;;
58015;SDS011;43809;52.110;20.964;2023-08-07T03:00:13;0.80;;;0.80;;
58015;SDS011;43809;52.110;20.964;2023-08-07T03:02:17;1.35;;;1.25;;
58015;SDS011;43809;52.110;20.964;2023-08-07T03:04:18;1.00;;;0.90;;
58015;SDS011;43809;52.110;20.964;2023-08-07T03:06:18;1.20;;;1.10;;
58015;SDS011;43809;52.110;20.964;2023-08-07T03:08:19;1.40;;;1.10;;
58015;SDS011;43809;52.110;20.964;2023-08-07T03:10:29;1.60;;;1.17;;
58015;SDS011;43809;52.110;20.964;2023-08-07T03:12:29;1.85;;;1.17;;
58015;SDS011;43809;52.110;20.964;2023-08-07T03:14:30;2.42;;;1.17;;
58015;SDS011;43809;52.110;20.964;2023-08-07T03:16:31;1.30;;;1.00;;
58015;SDS011;43809;52.110;20.964;2023-08-07T03:18:32;1.63;;;1.00;;
58015;SDS011;43809;52.110;20.964;2023-08-07T03:20:33;2.45;;;1.13;;
58015;SDS011;43809;52.110;20.964;2023-08-07T03:22:36;1.30;;;1.20;;
58015;SDS011;43809;52.110;20.964;2023-08-07T03:24:37;1.10;;;1.00;;
58015;SDS011;43809;52.110;20.964;2023-08-07T03:26:37;1.40;;;1.30;;
58015;SDS011;43809;52.110;20.964;2023-08-07T03:28:39;1.63;;;1.20;;
58015;SDS011;43809;52.110;20.964;2023-08-07T03:30:39;2.15;;;1.52;;
58015;SDS011;43809;52.110;20.964;2023-08-07T03:34:52;1.02;;;0.90;;
58015;SDS011;43809;52.110;20.964;2023-08-07T03:36:53;0.95;;;0.90;;
58015;SDS011;43809;52.110;20.964;2023-08-07T03:38:53;1.55;;;1.30;;
58015;SDS011;43809;52.110;20.964;2023-08-07T03:40:54;0.98;;;0.98;;
58015;SDS011;43809;52.110;20.964;2023-08-07T03:42:55;1.63;;;1.00;;
58015;SDS011;43809;52.110;20.964;2023-08-07T03:44:56;1.77;;;1.17;;
58015;SDS011;43809;52.110;20.964;2023-08-07T03:46:57;1.23;;;1.13;;
58015;SDS011;43809;52.110;20.964;2023-08-07T03:49:06;1.50;;;1.17;;
58015;SDS011;43809;52.110;20.964;2023-08-07T03:51:07;2.70;;;1.17;;
58015;SDS011;43809;52.110;20.964;2023-08-07T03:53:23;1.40;;;1.30;;
58015;SDS011;43809;52.110;20.964;2023-08-07T03:55:24;1.42;;;1.27;;
58015;SDS011;43809;52.110;20.964;2023-08-07T04:00:50;1.83;;;1.10;;
58015;SDS011;43809;52.110;20.964;2023-08-07T04:02:51;1.08;;;1.00;;
58015;SDS011;43809;52.110;20.964;2023-08-07T04:04:51;1.35;;;1.20;;
58015;SDS011;43809;52.110;20.964;2023-08-07T04:06:52;1.35;;;1.20;;
58015;SDS011;43809;52.110;20.964;2023-08-07T04:08:52;2.17;;;1.30;;
58015;SDS011;43809;52.110;20.964;2023-08-07T04:13:03;1.10;;;0.98;;
58015;SDS011;43809;52.110;20.964;2023-08-07T04:15:06;1.15;;;1.05;;
58015;SDS011;43809;52.110;20.964;2023-08-07T04:17:13;0.93;;;0.90;;
58015;SDS011;43809;52.110;20.964;2023-08-07T04:19:14;1.30;;;1.00;;
58015;SDS011;43809;52.110;20.964;2023-08-07T04:21:14;2.28;;;1.25;;
58015;SDS011;43809;52.110;20.964;2023-08-07T04:23:15;1.85;;;1.10;;
58015;SDS011;43809;52.110;20.964;2023-08-07T04:25:15;1.00;;;1.00;;
58015;SDS011;43809;52.110;20.964;2023-08-07T04:27:16;2.00;;;1.10;;
58015;SDS011;43809;52.110;20.964;2023-08-07T04:29:17;1.73;;;1.15;;
58015;SDS011;43809;52.110;20.964;2023-08-07T04:31:17;1.00;;;0.90;;
58015;SDS011;43809;52.110;20.964;2023-08-07T04:33:18;1.10;;;1.00;;
58015;SDS011;43809;52.110;20.964;2023-08-07T04:35:19;1.63;;;1.10;;
58015;SDS011;43809;52.110;20.964;2023-08-07T04:37:20;1.10;;;0.95;;
58015;SDS011;43809;52.110;20.964;2023-08-07T04:39:22;1.67;;;1.27;;
58015;SDS011;43809;52.110;20.964;2023-08-07T04:41:23;3.55;;;1.10;;
58015;SDS011;43809;52.110;20.964;2023-08-07T04:43:24;1.10;;;1.00;;
58015;SDS011;43809;52.110;20.964;2023-08-07T04:45:24;1.67;;;1.08;;
58015;SDS011;43809;52.110;20.964;2023-08-07T04:50:11;2.10;;;1.00;;
58015;SDS011;43809;52.110;20.964;2023-08-07T04:52:11;1.58;;;0.85;;
58015;SDS011;43809;52.110;20.964;2023-08-07T04:54:12;0.80;;;0.80;;
58015;SDS011;43809;52.110;20.964;2023-08-07T04:56:13;1.63;;;0.93;;
58015;SDS011;43809;52.110;20.964;2023-08-07T04:58:13;2.20;;;0.90;;
58015;SDS011;43809;52.110;20.964;2023-08-07T05:00:14;1.33;;;1.00;;
58015;SDS011;43809;52.110;20.964;2023-08-07T05:02:15;1.30;;;1.20;;
58015;SDS011;43809;52.110;20.964;2023-08-07T05:04:16;1.75;;;1.10;;
58015;SDS011;43809;52.110;20.964;2023-08-07T05:06:16;1.67;;;1.13;;
58015;SDS011;43809;52.110;20.964;2023-08-07T05:08:17;1.38;;;1.08;;
58015;SDS011;43809;52.110;20.964;2023-08-07T05:10:18;2.70;;;1.00;;
58015;SDS011;43809;52.110;20.964;2023-08-07T05:12:18;0.75;;;0.75;;
58015;SDS011;43809;52.110;20.964;2023-08-07T05:14:19;1.75;;;1.15;;
58015;SDS011;43809;52.110;20.964;2023-08-07T05:16:20;2.30;;;1.30;;
58015;SDS011;43809;52.110;20.964;2023-08-07T05:18:20;1.00;;;1.00;;
58015;SDS011;43809;52.110;20.964;2023-08-07T05:20:21;1.40;;;0.95;;
58015;SDS011;43809;52.110;20.964;2023-08-07T05:22:22;1.23;;;1.13;;
58015;SDS011;43809;52.110;20.964;2023-08-07T05:24:33;1.10;;;1.00;;
58015;SDS011;43809;52.110;20.964;2023-08-07T05:26:39;1.17;;;1.08;;
58015;SDS011;43809;52.110;20.964;2023-08-07T05:28:39;2.78;;;1.00;;
58015;SDS011;43809;52.110;20.964;2023-08-07T05:30:40;1.30;;;1.20;;
58015;SDS011;43809;52.110;20.964;2023-08-07T05:32:40;1.40;;;1.30;;
58015;SDS011;43809;52.110;20.964;2023-08-07T05:34:41;1.20;;;1.10;;
58015;SDS011;43809;52.110;20.964;2023-08-07T05:36:42;2.35;;;1.40;;
58015;SDS011;43809;52.110;20.964;2023-08-07T05:38:43;3.53;;;1.30;;
58015;SDS011;43809;52.110;20.964;2023-08-07T05:40:43;1.60;;;1.50;;
58015;SDS011;43809;52.110;20.964;2023-08-07T05:42:44;2.40;;;1.50;;
58015;SDS011;43809;52.110;20.964;2023-08-07T05:44:45;1.95;;;1.60;;
58015;SDS011;43809;52.110;20.964;2023-08-07T05:46:45;2.00;;;1.77;;
58015;SDS011;43809;52.110;20.964;2023-08-07T05:48:46;1.63;;;1.52;;
58015;SDS011;43809;52.110;20.964;2023-08-07T05:50:47;1.63;;;1.52;;
58015;SDS011;43809;52.110;20.964;2023-08-07T05:52:47;1.60;;;1.50;;
58015;SDS011;43809;52.110;20.964;2023-08-07T05:54:48;1.50;;;1.40;;
58015;SDS011;43809;52.110;20.964;2023-08-07T05:59:34;2.70;;;1.60;;
58015;SDS011;43809;52.110;20.964;2023-08-07T06:01:46;1.90;;;1.60;;
58015;SDS011;43809;52.110;20.964;2023-08-07T06:03:47;2.30;;;1.40;;
58015;SDS011;43809;52.110;20.964;2023-08-07T06:05:48;1.63;;;1.40;;
58015;SDS011;43809;52.110;20.964;2023-08-07T06:07:48;1.50;;;1.40;;
58015;SDS011;43809;52.110;20.964;2023-08-07T06:09:54;1.85;;;1.25;;
58015;SDS011;43809;52.110;20.964;2023-08-07T06:11:55;2.13;;;1.30;;
58015;SDS011;43809;52.110;20.964;2023-08-07T06:13:55;1.25;;;1.15;;
58015;SDS011;43809;52.110;20.964;2023-08-07T06:15:56;1.63;;;1.10;;
58015;SDS011;43809;52.110;20.964;2023-08-07T06:17:57;2.03;;;1.25;;
58015;SDS011;43809;52.110;20.964;2023-08-07T06:19:57;1.30;;;1.20;;
58015;SDS011;43809;52.110;20.964;2023-08-07T06:21:58;2.13;;;0.95;;
58015;SDS011;43809;52.110;20.964;2023-08-07T06:24:16;1.27;;;1.17;;
58015;SDS011;43809;52.110;20.964;2023-08-07T06:26:17;1.13;;;1.02;;
58015;SDS011;43809;52.110;20.964;2023-08-07T06:28:18;2.65;;;1.42;;
58015;SDS011;43809;52.110;20.964;2023-08-07T06:30:18;1.63;;;0.98;;
58015;SDS011;43809;52.110;20.964;2023-08-07T06:32:19;1.35;;;1.23;;
58015;SDS011;43809;52.110;20.964;2023-08-07T06:34:20;1.55;;;1.10;;
58015;SDS011;43809;52.110;20.964;2023-08-07T06:36:21;1.10;;;0.98;;
58015;SDS011;43809;52.110;20.964;2023-08-07T06:38:21;1.83;;;1.10;;
58015;SDS011;43809;52.110;20.964;2023-08-07T06:40:22;1.50;;;1.00;;
58015;SDS011;43809;52.110;20.964;2023-08-07T06:42:23;1.27;;;1.17;;
58015;SDS011;43809;52.110;20.964;2023-08-07T06:44:23;2.17;;;1.10;;
58015;SDS011;43809;52.110;20.964;2023-08-07T06:46:26;1.20;;;1.10;;
58015;SDS011;43809;52.110;20.964;2023-08-07T06:48:28;0.95;;;0.88;;
58015;SDS011;43809;52.110;20.964;2023-08-07T06:50:28;1.35;;;1.00;;
58015;SDS011;43809;52.110;20.964;2023-08-07T06:52:29;1.17;;;1.08;;
58015;SDS011;43809;52.110;20.964;2023-08-07T06:54:38;1.27;;;1.02;;
58015;SDS011;43809;52.110;20.964;2023-08-07T06:56:39;1.25;;;0.90;;
58015;SDS011;43809;52.110;20.964;2023-08-07T06:58:42;1.00;;;0.90;;
58015;SDS011;43809;52.110;20.964;2023-08-07T07:00:43;1.20;;;1.05;;
58015;SDS011;43809;52.110;20.964;2023-08-07T07:02:43;3.28;;;1.20;;
58015;SDS011;43809;52.110;20.964;2023-08-07T07:04:44;1.38;;;1.10;;
58015;SDS011;43809;52.110;20.964;2023-08-07T07:06:45;1.60;;;1.20;;
58015;SDS011;43809;52.110;20.964;2023-08-07T07:08:46;2.22;;;1.10;;
58015;SDS011;43809;52.110;20.964;2023-08-07T07:10:47;1.30;;;0.93;;
58015;SDS011;43809;52.110;20.964;2023-08-07T07:12:47;1.38;;;1.00;;
58015;SDS011;43809;52.110;20.964;2023-08-07T07:14:54;1.15;;;1.05;;
58015;SDS011;43809;52.110;20.964;2023-08-07T07:16:55;2.85;;;1.17;;
58015;SDS011;43809;52.110;20.964;2023-08-07T07:21:22;1.05;;;1.00;;
58015;SDS011;43809;52.110;20.964;2023-08-07T07:23:23;1.75;;;1.10;;
58015;SDS011;43809;52.110;20.964;2023-08-07T07:25:24;5.75;;;1.10;;
58015;SDS011;43809;52.110;20.964;2023-08-07T07:27:24;1.98;;;1.05;;
58015;SDS011;43809;52.110;20.964;2023-08-07T07:29:34;1.95;;;1.05;;
58015;SDS011;43809;52.110;20.964;2023-08-07T07:31:34;1.52;;;1.20;;
58015;SDS011;43809;52.110;20.964;2023-08-07T07:33:35;1.65;;;1.20;;
58015;SDS011;43809;52.110;20.964;2023-08-07T07:35:39;1.23;;;0.88;;
58015;SDS011;43809;52.110;20.964;2023-08-07T07:40:03;1.33;;;1.00;;
58015;SDS011;43809;52.110;20.964;2023-08-07T07:42:05;2.53;;;1.17;;
58015;SDS011;43809;52.110;20.964;2023-08-07T07:44:06;1.80;;;1.00;;
58015;SDS011;43809;52.110;20.964;2023-08-07T07:46:06;2.10;;;1.30;;
58015;SDS011;43809;52.110;20.964;2023-08-07T07:48:07;2.03;;;1.13;;
58015;SDS011;43809;52.110;20.964;2023-08-07T07:50:08;1.75;;;1.23;;
58015;SDS011;43809;52.110;20.964;2023-08-07T07:52:09;2.63;;;1.15;;
58015;SDS011;43809;52.110;20.964;2023-08-07T07:54:11;1.50;;;1.13;;
58015;SDS011;43809;52.110;20.964;2023-08-07T07:56:11;5.25;;;1.50;;
58015;SDS011;43809;52.110;20.964;2023-08-07T07:58:12;2.00;;;1.10;;
58015;SDS011;43809;52.110;20.964;2023-08-07T08:00:13;1.75;;;1.00;;
58015;SDS011;43809;52.110;20.964;2023-08-07T08:04:34;2.45;;;1.10;;
58015;SDS011;43809;52.110;20.964;2023-08-07T08:06:35;1.85;;;1.23;;
58015;SDS011;43809;52.110;20.964;2023-08-07T08:08:36;1.98;;;1.35;;
58015;SDS011;43809;52.110;20.964;2023-08-07T08:10:37;1.77;;;1.15;;
58015;SDS011;43809;52.110;20.964;2023-08-07T08:12:37;7.55;;;1.30;;
58015;SDS011;43809;52.110;20.964;2023-08-07T08:14:46;1.00;;;0.90;;
58015;SDS011;43809;52.110;20.964;2023-08-07T08:16:47;1.30;;;1.10;;
58015;SDS011;43809;52.110;20.964;2023-08-07T08:18:47;1.35;;;1.10;;
58015;SDS011;43809;52.110;20.964;2023-08-07T08:20:48;1.33;;;1.10;;
58015;SDS011;43809;52.110;20.964;2023-08-07T08:22:49;1.40;;;1.20;;
58015;SDS011;43809;52.110;20.964;2023-08-07T08:24:49;1.08;;;0.98;;
58015;SDS011;43809;52.110;20.964;2023-08-07T08:26:50;4.00;;;1.25;;
58015;SDS011;43809;52.110;20.964;2023-08-07T08:28:51;2.95;;;1.17;;
58015;SDS011;43809;52.110;20.964;2023-08-07T08:30:51;2.67;;;1.20;;
58015;SDS011;43809;52.110;20.964;2023-08-07T08:32:52;1.10;;;1.00;;
58015;SDS011;43809;52.110;20.964;2023-08-07T08:34:53;1.27;;;1.08;;
58015;SDS011;43809;52.110;20.964;2023-08-07T08:36:53;6.63;;;1.58;;
58015;SDS011;43809;52.110;20.964;2023-08-07T08:38:54;2.58;;;1.23;;
58015;SDS011;43809;52.110;20.964;2023-08-07T08:40:54;1.50;;;1.00;;
58015;SDS011;43809;52.110;20.964;2023-08-07T08:42:56;1.00;;;0.90;;
58015;SDS011;43809;52.110;20.964;2023-08-07T08:44:58;5.75;;;1.05;;
58015;SDS011;43809;52.110;20.964;2023-08-07T08:46:59;3.17;;;1.00;;
58015;SDS011;43809;52.110;20.964;2023-08-07T08:51:49;1.73;;;1.00;;
58015;SDS011;43809;52.110;20.964;2023-08-07T08:53:51;3.67;;;0.90;;
58015;SDS011;43809;52.110;20.964;2023-08-07T08:55:52;1.97;;;1.07;;
58015;SDS011;43809;52.110;20.964;2023-08-07T08:57:53;2.70;;;1.15;;
58015;SDS011;43809;52.110;20.964;2023-08-07T08:59:59;3.10;;;1.13;;
58015;SDS011;43809;52.110;20.964;2023-08-07T09:04:20;1.60;;;0.85;;
58015;SDS011;43809;52.110;20.964;2023-08-07T09:06:21;2.90;;;0.90;;
58015;SDS011;43809;52.110;20.964;2023-08-07T09:08:22;1.17;;;0.77;;
58015;SDS011;43809;52.110;20.964;2023-08-07T09:10:23;0.70;;;0.70;;
58015;SDS011;43809;52.110;20.964;2023-08-07T09:12:25;14.13;;;2.20;;
58015;SDS011;43809;52.110;20.964;2023-08-07T09:16:27;1.75;;;0.75;;
58015;SDS011;43809;52.110;20.964;2023-08-07T09:18:28;0.88;;;0.85;;
58015;SDS011;43809;52.110;20.964;2023-08-07T09:20:29;1.00;;;0.70;;
58015;SDS011;43809;52.110;20.964;2023-08-07T09:22:29;1.63;;;0.70;;
58015;SDS011;43809;52.110;20.964;2023-08-07T09:24:30;4.05;;;0.95;;
58015;SDS011;43809;52.110;20.964;2023-08-07T09:26:41;2.13;;;0.90;;
58015;SDS011;43809;52.110;20.964;2023-08-07T09:28:42;2.17;;;1.05;;
58015;SDS011;43809;52.110;20.964;2023-08-07T09:30:43;4.22;;;1.10;;
58015;SDS011;43809;52.110;20.964;2023-08-07T09:36:03;1.08;;;0.70;;
58015;SDS011;43809;52.110;20.964;2023-08-07T09:38:04;2.65;;;0.90;;
58015;SDS011;43809;52.110;20.964;2023-08-07T09:40:04;1.92;;;0.82;;
58015;SDS011;43809;52.110;20.964;2023-08-07T09:42:15;2.08;;;0.98;;
58015;SDS011;43809;52.110;20.964;2023-08-07T09:46:26;1.75;;;0.85;;
58015;SDS011;43809;52.110;20.964;2023-08-07T09:48:27;1.50;;;0.82;;
58015;SDS011;43809;52.110;20.964;2023-08-07T09:50:29;4.33;;;1.17;;
58015;SDS011;43809;52.110;20.964;2023-08-07T09:52:30;1.13;;;0.90;;
58015;SDS011;43809;52.110;20.964;2023-08-07T09:54:32;4.05;;;1.50;;
58015;SDS011;43809;52.110;20.964;2023-08-07T09:56:32;1.98;;;1.00;;
58015;SDS011;43809;52.110;20.964;2023-08-07T09:58:33;2.47;;;0.80;;
58015;SDS011;43809;52.110;20.964;2023-08-07T10:00:34;0.93;;;0.80;;
58015;SDS011;43809;52.110;20.964;2023-08-07T10:02:35;1.33;;;0.80;;
58015;SDS011;43809;52.110;20.964;2023-08-07T10:04:36;1.33;;;1.00;;
58015;SDS011;43809;52.110;20.964;2023-08-07T10:06:37;2.47;;;1.00;;
58015;SDS011;43809;52.110;20.964;2023-08-07T10:08:37;2.95;;;0.88;;
58015;SDS011;43809;52.110;20.964;2023-08-07T10:10:38;1.02;;;0.88;;
58015;SDS011;43809;52.110;20.964;2023-08-07T10:12:39;2.03;;;1.20;;
58015;SDS011;43809;52.110;20.964;2023-08-07T10:14:41;4.75;;;1.15;;
58015;SDS011;43809;52.110;20.964;2023-08-07T10:17:00;4.10;;;1.00;;
58015;SDS011;43809;52.110;20.964;2023-08-07T10:19:01;2.08;;;0.82;;
58015;SDS011;43809;52.110;20.964;2023-08-07T10:21:02;1.95;;;0.77;;
58015;SDS011;43809;52.110;20.964;2023-08-07T10:23:14;1.15;;;0.82;;
58015;SDS011;43809;52.110;20.964;2023-08-07T10:25:18;2.80;;;1.00;;
58015;SDS011;43809;52.110;20.964;2023-08-07T10:27:33;2.75;;;0.90;;
58015;SDS011;43809;52.110;20.964;2023-08-07T10:29:35;0.93;;;0.73;;
58015;SDS011;43809;52.110;20.964;2023-08-07T10:31:36;2.15;;;0.95;;
58015;SDS011;43809;52.110;20.964;2023-08-07T10:33:38;1.15;;;1.00;;
58015;SDS011;43809;52.110;20.964;2023-08-07T10:35:44;2.17;;;1.50;;
58015;SDS011;43809;52.110;20.964;2023-08-07T10:37:45;3.85;;;1.13;;
58015;SDS011;43809;52.110;20.964;2023-08-07T10:42:19;2.83;;;0.90;;
58015;SDS011;43809;52.110;20.964;2023-08-07T10:44:20;1.60;;;0.88;;
58015;SDS011;43809;52.110;20.964;2023-08-07T10:46:21;2.00;;;0.90;;
58015;SDS011;43809;52.110;20.964;2023-08-07T10:48:22;2.92;;;0.98;;
58015;SDS011;43809;52.110;20.964;2023-08-07T10:50:29;2.78;;;1.10;;
58015;SDS011;43809;52.110;20.964;2023-08-07T10:52:30;2.60;;;1.20;;
58015;SDS011;43809;52.110;20.964;2023-08-07T10:56:52;3.53;;;1.20;;
58015;SDS011;43809;52.110;20.964;2023-08-07T10:58:53;6.00;;;1.08;;
58015;SDS011;43809;52.110;20.964;2023-08-07T11:03:20;3.33;;;1.15;;
58015;SDS011;43809;52.110;20.964;2023-08-07T11:05:20;6.82;;;1.15;;
58015;SDS011;43809;52.110;20.964;2023-08-07T11:07:22;1.50;;;0.90;;
58015;SDS011;43809;52.110;20.964;2023-08-07T11:09:25;2.45;;;1.00;;
58015;SDS011;43809;52.110;20.964;2023-08-07T11:11:27;6.30;;;1.23;;
58015;SDS011;43809;52.110;20.964;2023-08-07T11:13:29;2.08;;;0.70;;
58015;SDS011;43809;52.110;20.964;2023-08-07T11:18:48;5.88;;;1.20;;
58015;SDS011;43809;52.110;20.964;2023-08-07T11:20:49;3.35;;;0.90;;
58015;SDS011;43809;52.110;20.964;2023-08-07T11:22:50;1.60;;;0.95;;
58015;SDS011;43809;52.110;20.964;2023-08-07T11:24:51;5.53;;;1.17;;
58015;SDS011;43809;52.110;20.964;2023-08-07T11:26:51;2.97;;;0.95;;
58015;SDS011;43809;52.110;20.964;2023-08-07T11:28:53;1.00;;;0.80;;
58015;SDS011;43809;52.110;20.964;2023-08-07T11:31:09;0.90;;;0.80;;
58015;SDS011;43809;52.110;20.964;2023-08-07T11:33:11;5.03;;;1.02;;
58015;SDS011;43809;52.110;20.964;2023-08-07T11:35:11;2.60;;;0.98;;
58015;SDS011;43809;52.110;20.964;2023-08-07T11:39:59;10.02;;;1.63;;
58015;SDS011;43809;52.110;20.964;2023-08-07T11:41:59;4.38;;;1.20;;
58015;SDS011;43809;52.110;20.964;2023-08-07T11:44:00;2.08;;;1.00;;
58015;SDS011;43809;52.110;20.964;2023-08-07T11:46:01;2.30;;;0.90;;
58015;SDS011;43809;52.110;20.964;2023-08-07T11:48:02;1.42;;;0.80;;
58015;SDS011;43809;52.110;20.964;2023-08-07T11:50:03;4.30;;;1.27;;
58015;SDS011;43809;52.110;20.964;2023-08-07T11:52:04;1.80;;;1.10;;
58015;SDS011;43809;52.110;20.964;2023-08-07T11:57:24;1.10;;;0.93;;
58015;SDS011;43809;52.110;20.964;2023-08-07T11:59:25;1.45;;;1.05;;
58015;SDS011;43809;52.110;20.964;2023-08-07T12:01:36;2.13;;;1.00;;
58015;SDS011;43809;52.110;20.964;2023-08-07T12:03:38;1.40;;;1.25;;
58015;SDS011;43809;52.110;20.964;2023-08-07T12:05:40;4.82;;;1.27;;
58015;SDS011;43809;52.110;20.964;2023-08-07T12:07:41;2.38;;;1.38;;
58015;SDS011;43809;52.110;20.964;2023-08-07T12:12:19;3.22;;;1.30;;
58015;SDS011;43809;52.110;20.964;2023-08-07T12:14:20;2.65;;;1.08;;
58015;SDS011;43809;52.110;20.964;2023-08-07T12:16:21;3.40;;;1.38;;
58015;SDS011;43809;52.110;20.964;2023-08-07T12:18:22;3.90;;;1.30;;
58015;SDS011;43809;52.110;20.964;2023-08-07T12:20:23;2.47;;;1.00;;
58015;SDS011;43809;52.110;20.964;2023-08-07T12:22:24;1.85;;;1.30;;
58015;SDS011;43809;52.110;20.964;2023-08-07T12:24:27;5.82;;;1.13;;
58015;SDS011;43809;52.110;20.964;2023-08-07T12:26:45;1.63;;;1.10;;
58015;SDS011;43809;52.110;20.964;2023-08-07T12:28:46;4.15;;;1.50;;
58015;SDS011;43809;52.110;20.964;2023-08-07T12:30:47;3.28;;;1.10;;
58015;SDS011;43809;52.110;20.964;2023-08-07T12:32:49;6.78;;;1.35;;
58015;SDS011;43809;52.110;20.964;2023-08-07T12:34:49;1.75;;;1.13;;
58015;SDS011;43809;52.110;20.964;2023-08-07T12:36:50;3.22;;;1.35;;
58015;SDS011;43809;52.110;20.964;2023-08-07T12:38:51;6.03;;;1.60;;
58015;SDS011;43809;52.110;20.964;2023-08-07T12:40:52;4.22;;;1.30;;
58015;SDS011;43809;52.110;20.964;2023-08-07T12:42:52;4.15;;;1.33;;
58015;SDS011;43809;52.110;20.964;2023-08-07T12:44:53;2.75;;;1.10;;
58015;SDS011;43809;52.110;20.964;2023-08-07T12:46:54;7.25;;;1.30;;
58015;SDS011;43809;52.110;20.964;2023-08-07T12:48:54;2.05;;;1.08;;
58015;SDS011;43809;52.110;20.964;2023-08-07T12:50:55;3.55;;;1.40;;
58015;SDS011;43809;52.110;20.964;2023-08-07T12:52:56;3.15;;;1.20;;
58015;SDS011;43809;52.110;20.964;2023-08-07T12:57:28;2.97;;;1.20;;
58015;SDS011;43809;52.110;20.964;2023-08-07T12:59:29;1.20;;;1.05;;
58015;SDS011;43809;52.110;20.964;2023-08-07T13:01:29;3.15;;;1.23;;
58015;SDS011;43809;52.110;20.964;2023-08-07T13:03:30;5.75;;;1.10;;
58015;SDS011;43809;52.110;20.964;2023-08-07T13:05:30;1.90;;;1.10;;